createdAt,value
2023-03-18T00:01:08.949Z,21.80
2023-03-18T00:03:38.732Z,21.83
2023-03-18T00:06:08.734Z,21.45
2023-03-18T00:08:37.798Z,21.92
2023-03-18T00:11:08.179Z,21.73
2023-03-18T00:13:36.569Z,21.38
2023-03-18T00:16:09.491Z,21.96
2023-03-18T00:18:39.593Z,21.45
2023-03-18T00:21:10.235Z,21.96
2023-03-18T00:23:38.936Z,21.89
2023-03-18T00:26:09.402Z,21.82
2023-03-18T00:28:40.220Z,21.57
2023-03-18T00:31:09.917Z,21.42
2023-03-18T00:33:43.744Z,21.02
2023-03-18T00:36:13.972Z,21.58
2023-03-18T00:38:43.074Z,21.38
2023-03-18T00:41:16.188Z,21.44
2023-03-18T00:43:52.849Z,21.41
2023-03-18T00:46:24.609Z,21.32
2023-03-18T00:48:56.100Z,21.29
2023-03-18T00:51:26.693Z,21.43
2023-03-18T00:53:57.201Z,21.16
2023-03-18T00:56:28.618Z,21.47
2023-03-18T00:59:00.125Z,21.65
2023-03-18T01:01:31.614Z,21.70
2023-03-18T01:04:02.655Z,22.12
2023-03-18T01:06:32.753Z,21.71
2023-03-18T01:09:01.490Z,21.65
2023-03-18T01:11:29.850Z,21.92
2023-03-18T01:13:59.526Z,21.97
2023-03-18T01:16:29.795Z,22.24
2023-03-18T01:18:58.357Z,22.26
2023-03-18T01:21:27.922Z,22.49
2023-03-18T01:24:00.967Z,22.50
2023-03-18T01:26:30.436Z,22.44
2023-03-18T01:29:00.853Z,22.34
2023-03-18T01:31:31.031Z,22.10
2023-03-18T01:34:05.011Z,22.30
2023-03-18T01:36:44.627Z,22.18
2023-03-18T01:39:12.614Z,22.16
2023-03-18T01:41:40.950Z,22.19
2023-03-18T01:44:15.616Z,22.39
2023-03-18T01:46:49.637Z,22.49
2023-03-18T01:49:23.168Z,22.46
2023-03-18T01:51:56.669Z,22.49
2023-03-18T01:54:28.392Z,22.14
2023-03-18T01:56:57.454Z,22.09
2023-03-18T01:59:28.935Z,22.10
2023-03-18T02:02:02.649Z,22.43
2023-03-18T02:04:38.190Z,22.35
2023-03-18T02:07:08.982Z,21.53
2023-03-18T02:09:37.599Z,21.27
2023-03-18T02:12:08.675Z,21.14
2023-03-18T02:14:36.837Z,20.67
2023-03-18T02:17:12.492Z,20.58
2023-03-18T02:22:27.629Z,21.57
2023-03-18T02:25:14.252Z,21.45
2023-03-18T02:27:47.558Z,21.49
2023-03-18T02:30:20.761Z,21.57
2023-03-18T02:32:53.510Z,21.69
2023-03-18T02:35:22.752Z,21.69
2023-03-18T02:37:53.081Z,21.80
2023-03-18T02:40:29.300Z,21.74
2023-03-18T02:43:10.922Z,21.81
2023-03-18T02:45:51.848Z,21.65
2023-03-18T02:48:24.290Z,21.90
2023-03-18T02:50:52.742Z,21.56
2023-03-18T02:53:20.970Z,22.01
2023-03-18T02:55:49.354Z,21.73
2023-03-18T02:58:28.672Z,21.41
2023-03-18T03:01:04.544Z,20.48
2023-03-18T03:03:34.758Z,22.01
2023-03-18T03:06:04.143Z,20.08
2023-03-18T03:08:36.072Z,20.34
2023-03-18T03:11:14.555Z,22.12
2023-03-18T03:13:46.394Z,21.57
2023-03-18T03:16:18.502Z,23.19
2023-03-18T03:18:46.894Z,22.54
2023-03-18T03:21:17.238Z,24.87
2023-03-18T03:23:47.780Z,24.57
2023-03-18T03:26:17.013Z,22.62
2023-03-18T03:28:46.972Z,22.10
2023-03-18T03:31:15.648Z,22.47
2023-03-18T03:33:44.224Z,22.31
2023-03-18T03:36:14.394Z,23.10
2023-03-18T03:38:43.707Z,22.42
2023-03-18T03:41:13.601Z,22.75
2023-03-18T03:43:42.379Z,23.05
2023-03-18T03:46:12.777Z,22.82
2023-03-18T03:48:42.211Z,21.70
2023-03-18T03:51:15.224Z,21.53
2023-03-18T03:53:44.567Z,21.13
2023-03-18T03:56:13.352Z,21.96
2023-03-18T03:58:42.351Z,21.45
2023-03-18T04:01:12.678Z,21.37
2023-03-18T04:03:41.605Z,21.11
2023-03-18T04:06:11.499Z,21.54
2023-03-18T04:08:46.926Z,21.08
2023-03-18T04:11:16.280Z,20.83
2023-03-18T04:13:45.701Z,20.56
2023-03-18T04:16:17.151Z,19.74
2023-03-18T04:18:46.013Z,19.82
2023-03-18T04:21:16.710Z,20.86
2023-03-18T04:23:49.724Z,20.95
2023-03-18T04:26:20.246Z,21.09
2023-03-18T04:28:49.602Z,20.42
2023-03-18T04:31:19.618Z,20.24
2023-03-18T04:33:49.267Z,21.10
2023-03-18T04:36:17.535Z,20.03
2023-03-18T04:38:46.816Z,19.87
2023-03-18T04:41:16.357Z,19.50
2023-03-18T04:43:45.678Z,19.82
2023-03-18T04:46:14.037Z,19.41
2023-03-18T04:48:45.998Z,19.26
2023-03-18T04:51:16.621Z,18.69
2023-03-18T04:53:46.724Z,18.88
2023-03-18T04:56:15.677Z,19.17
2023-03-18T04:58:49.326Z,19.27
2023-03-18T05:01:22.627Z,20.12
2023-03-18T05:03:53.108Z,19.76
2023-03-18T05:06:25.641Z,19.21
2023-03-18T05:09:01.303Z,19.02
2023-03-18T05:11:34.695Z,19.38
2023-03-18T05:14:12.626Z,19.15
2023-03-18T05:16:47.535Z,19.73
2023-03-18T05:19:18.111Z,19.44
2023-03-18T05:21:57.900Z,19.50
2023-03-18T05:24:27.380Z,19.50
2023-03-18T05:26:56.204Z,18.95
2023-03-18T05:29:28.946Z,18.67
2023-03-18T05:32:12.795Z,18.07
2023-03-18T05:34:43.503Z,18.89
2023-03-18T05:37:15.571Z,19.10
2023-03-18T05:39:49.988Z,19.50
2023-03-18T05:42:20.679Z,18.82
2023-03-18T05:44:49.964Z,18.31
2023-03-18T05:47:22.684Z,19.01
2023-03-18T05:50:09.046Z,18.55
2023-03-18T05:52:38.922Z,19.58
2023-03-18T05:55:15.570Z,19.21
2023-03-18T05:57:46.792Z,19.05
2023-03-18T06:00:18.714Z,19.17
2023-03-18T06:02:50.115Z,19.24
2023-03-18T06:05:21.459Z,18.57
2023-03-18T06:07:50.653Z,19.13
2023-03-18T06:10:20.648Z,18.81
2023-03-18T06:12:50.986Z,19.37
2023-03-18T06:15:21.479Z,19.71
2023-03-18T06:17:50.432Z,19.68
2023-03-18T06:20:21.924Z,20.11
2023-03-18T06:22:50.390Z,19.99
2023-03-18T06:25:24.242Z,19.43
2023-03-18T06:27:53.928Z,20.36
2023-03-18T06:30:27.856Z,20.35
2023-03-18T06:32:56.892Z,19.87
2023-03-18T06:35:30.478Z,20.44
2023-03-18T06:37:59.849Z,19.60
2023-03-18T06:40:36.470Z,20.12
2023-03-18T06:46:07.769Z,19.17
2023-03-18T06:48:40.458Z,19.73
2023-03-18T06:51:13.951Z,19.74
2023-03-18T06:53:45.763Z,19.64
2023-03-18T06:56:16.914Z,18.93
2023-03-18T06:58:56.256Z,19.14
2023-03-18T07:01:27.089Z,18.31
2023-03-18T07:03:56.678Z,18.33
2023-03-18T07:06:29.847Z,18.69
2023-03-18T07:09:02.190Z,19.70
2023-03-18T07:11:31.411Z,19.00
2023-03-18T07:14:06.263Z,19.56
2023-03-18T07:16:37.476Z,19.35
2023-03-18T07:19:07.122Z,19.70
2023-03-18T07:21:41.007Z,19.96
2023-03-18T07:24:10.136Z,19.79
2023-03-18T07:27:12.079Z,20.36
2023-03-18T07:29:58.988Z,19.97
2023-03-18T07:32:35.900Z,20.32
2023-03-18T07:35:11.211Z,20.57
2023-03-18T07:37:53.319Z,20.11
2023-03-18T07:40:27.342Z,20.25
2023-03-18T07:43:20.292Z,20.58
2023-03-18T07:48:53.612Z,20.98
2023-03-18T07:51:21.676Z,20.34
2023-03-18T07:53:50.734Z,20.73
2023-03-18T07:56:18.717Z,20.51
2023-03-18T07:58:46.688Z,20.45
2023-03-18T08:01:16.593Z,20.05
2023-03-18T08:03:44.855Z,19.12
2023-03-18T08:06:15.327Z,19.29
2023-03-18T08:08:44.641Z,19.76
2023-03-18T08:11:13.307Z,19.88
2023-03-18T08:13:41.333Z,18.96
2023-03-18T08:16:31.477Z,20.08
2023-03-18T08:19:36.544Z,20.27
2023-03-18T08:22:39.801Z,19.70
2023-03-18T08:25:13.238Z,19.71
2023-03-18T08:27:45.281Z,19.63
2023-03-18T08:30:17.264Z,19.39
2023-03-18T08:32:46.559Z,19.30
2023-03-18T08:35:25.948Z,19.97
2023-03-18T08:37:56.351Z,20.27
2023-03-18T08:40:31.806Z,21.24
2023-03-18T08:42:59.966Z,21.52
2023-03-18T08:45:28.764Z,20.60
2023-03-18T08:47:57.048Z,21.64
2023-03-18T08:50:28.546Z,21.25
2023-03-18T08:53:01.646Z,21.17
2023-03-18T08:55:34.042Z,19.88
2023-03-18T08:58:04.530Z,21.62
2023-03-18T09:00:35.463Z,21.75
2023-03-18T09:03:05.372Z,21.40
2023-03-18T09:05:36.064Z,22.52
2023-03-18T09:08:42.173Z,21.98
2023-03-18T09:11:13.964Z,22.37
2023-03-18T09:13:42.253Z,22.31
2023-03-18T09:16:22.392Z,21.78
2023-03-18T09:24:47.975Z,22.55
2023-03-18T09:27:30.837Z,22.18
2023-03-18T09:30:13.961Z,23.34
2023-03-18T09:42:01.132Z,22.17
2023-03-18T09:44:36.277Z,22.90
2023-03-18T09:47:26.203Z,21.80
2023-03-18T09:50:11.359Z,22.85
2023-03-18T09:52:45.368Z,23.70
2023-03-18T09:59:00.475Z,24.08
2023-03-18T10:01:29.908Z,24.02
2023-03-18T10:04:04.094Z,24.68
2023-03-18T10:09:34.731Z,23.85
2023-03-18T10:12:14.724Z,23.46
2023-03-18T10:14:50.224Z,24.21
2023-03-18T10:20:39.806Z,23.74
2023-03-18T10:26:41.828Z,23.22
2023-03-18T10:29:24.920Z,22.79
2023-03-18T10:32:08.385Z,23.15
2023-03-18T10:34:44.367Z,22.67
2023-03-18T10:37:25.189Z,24.30
2023-03-18T10:39:55.071Z,24.02
2023-03-18T10:42:26.781Z,23.65
2023-03-18T10:44:58.384Z,23.57
2023-03-18T10:47:30.381Z,23.82
2023-03-18T10:50:06.349Z,23.91
2023-03-18T10:52:43.240Z,23.74
2023-03-18T10:55:17.977Z,23.58
2023-03-18T10:57:48.360Z,23.98
2023-03-18T11:03:38.547Z,24.04
2023-03-18T11:06:14.189Z,24.20
2023-03-18T11:08:44.982Z,24.40
2023-03-18T11:11:21.875Z,24.76
2023-03-18T11:13:55.990Z,24.39
2023-03-18T11:16:29.792Z,23.37
2023-03-18T11:18:59.780Z,23.72
2023-03-18T11:21:29.809Z,24.27
2023-03-18T11:24:20.945Z,23.99
2023-03-18T11:26:54.473Z,23.48
2023-03-18T11:29:26.099Z,24.00
2023-03-18T11:31:59.894Z,24.16
2023-03-18T11:34:30.867Z,23.82
2023-03-18T11:37:04.516Z,24.78
2023-03-18T11:39:37.636Z,23.64
2023-03-18T11:42:18.922Z,24.44
2023-03-18T11:44:47.817Z,23.91
2023-03-18T11:47:24.232Z,24.49
2023-03-18T11:49:54.514Z,24.38
2023-03-18T11:55:23.957Z,24.06
2023-03-18T11:58:18.048Z,24.44
2023-03-18T12:00:53.887Z,24.59
2023-03-18T12:04:06.133Z,25.34
2023-03-18T12:06:42.884Z,24.78
2023-03-18T12:09:22.749Z,25.36
2023-03-18T12:12:06.969Z,24.22
2023-03-18T12:14:42.179Z,24.28
2023-03-18T12:17:25.757Z,24.70
2023-03-18T12:20:10.382Z,24.53
2023-03-18T12:23:07.218Z,25.35
2023-03-18T12:25:58.691Z,25.12
2023-03-18T12:28:39.218Z,25.02
2023-03-18T12:31:28.037Z,25.57
2023-03-18T12:33:58.825Z,25.65
2023-03-18T12:36:40.442Z,24.68
2023-03-18T12:39:35.470Z,25.12
2023-03-18T12:42:09.433Z,26.07
2023-03-18T12:44:57.925Z,25.92
2023-03-18T12:47:32.383Z,24.71
2023-03-18T12:50:05.031Z,25.73
2023-03-18T12:52:41.369Z,24.63
2023-03-18T12:55:18.709Z,24.52
2023-03-18T12:57:50.116Z,25.84
2023-03-18T13:00:24.871Z,25.40
2023-03-18T13:03:00.092Z,24.82
2023-03-18T13:05:42.048Z,25.30
2023-03-18T13:08:48.517Z,25.32
2023-03-18T13:11:44.662Z,25.23
2023-03-18T13:14:22.974Z,25.45
2023-03-18T13:16:52.073Z,25.14
2023-03-18T13:19:20.081Z,25.70
2023-03-18T13:22:04.975Z,24.96
2023-03-18T13:24:54.037Z,24.92
2023-03-18T13:27:54.831Z,25.22
2023-03-18T13:30:33.057Z,25.56
2023-03-18T13:33:27.197Z,25.03
2023-03-18T13:36:24.026Z,25.16
2023-03-18T13:39:02.387Z,25.05
2023-03-18T13:41:47.127Z,24.91
2023-03-18T13:44:26.152Z,24.83
2023-03-18T13:47:03.217Z,24.89
2023-03-18T13:49:33.752Z,25.14
2023-03-18T13:52:04.077Z,24.73
2023-03-18T13:54:36.684Z,25.84
2023-03-18T13:57:37.368Z,26.06
2023-03-18T14:00:33.687Z,25.96
2023-03-18T14:03:20.553Z,25.81
2023-03-18T14:05:50.427Z,25.16
2023-03-18T14:08:48.339Z,24.73
2023-03-18T14:11:50.478Z,25.53
2023-03-18T14:14:57.099Z,24.54
2023-03-18T14:17:35.358Z,25.87
2023-03-18T14:20:19.632Z,26.42
2023-03-18T14:22:50.773Z,27.05
2023-03-18T14:25:38.089Z,26.94
2023-03-18T14:28:20.605Z,27.25
2023-03-18T14:30:56.040Z,26.81
2023-03-18T14:33:56.770Z,27.79
2023-03-18T14:36:50.551Z,25.91
2023-03-18T14:39:22.157Z,25.43
2023-03-18T14:41:56.038Z,25.66
2023-03-18T14:44:29.892Z,25.96
2023-03-18T14:47:00.709Z,26.54
2023-03-18T14:49:45.494Z,25.43
2023-03-18T14:52:30.581Z,25.81
2023-03-18T14:55:03.776Z,26.59
2023-03-18T14:57:32.929Z,26.46
2023-03-18T15:00:02.320Z,26.10
2023-03-18T15:02:35.774Z,26.25
2023-03-18T15:05:07.817Z,25.17
2023-03-18T15:07:45.531Z,25.25
2023-03-18T15:10:17.856Z,25.08
2023-03-18T15:12:46.134Z,25.57
2023-03-18T15:15:18.297Z,25.83
2023-03-18T15:17:49.844Z,26.35
2023-03-18T15:20:20.467Z,26.98
2023-03-18T15:22:49.104Z,26.43
2023-03-18T15:25:21.081Z,25.43
2023-03-18T15:27:49.926Z,26.00
2023-03-18T15:30:27.189Z,25.46
2023-03-18T15:33:04.830Z,25.71
2023-03-18T15:35:35.584Z,26.26
2023-03-18T15:38:14.682Z,26.66
2023-03-18T15:40:53.475Z,25.93
2023-03-18T15:43:30.444Z,26.19
2023-03-18T15:46:00.457Z,26.30
2023-03-18T15:48:36.033Z,26.54
2023-03-18T15:51:09.946Z,26.42
2023-03-18T15:53:44.695Z,26.02
2023-03-18T15:56:19.661Z,24.81
2023-03-18T15:58:58.003Z,24.96
2023-03-18T16:01:26.464Z,25.51
2023-03-18T16:03:54.835Z,25.72
2023-03-18T16:06:24.636Z,25.74
2023-03-18T16:08:52.663Z,25.19
2023-03-18T16:11:23.620Z,25.58
2023-03-18T16:13:53.256Z,25.27
2023-03-18T16:16:27.822Z,25.83
2023-03-18T16:18:57.219Z,24.82
2023-03-18T16:21:27.012Z,25.63
2023-03-18T16:23:55.860Z,25.82
2023-03-18T16:26:24.092Z,25.59
2023-03-18T16:28:52.972Z,25.19
2023-03-18T16:31:20.920Z,25.44
2023-03-18T16:33:52.697Z,26.29
2023-03-18T16:36:34.083Z,26.84
2023-03-18T16:39:05.278Z,27.56
2023-03-18T16:41:34.556Z,27.04
2023-03-18T16:44:03.621Z,27.55
2023-03-18T16:46:32.480Z,27.16
2023-03-18T16:49:02.566Z,26.04
2023-03-18T16:51:34.227Z,27.12
2023-03-18T16:54:02.005Z,27.03
2023-03-18T16:56:30.185Z,26.60
2023-03-18T16:58:58.159Z,25.99
2023-03-18T17:01:28.270Z,25.59
2023-03-18T17:03:57.150Z,24.83
2023-03-18T17:06:26.193Z,24.99
2023-03-18T17:08:56.682Z,25.00
2023-03-18T17:11:24.911Z,24.54
2023-03-18T17:13:54.328Z,24.85
2023-03-18T17:16:23.146Z,24.87
2023-03-18T17:18:51.442Z,24.78
2023-03-18T17:21:19.617Z,24.97
2023-03-18T17:23:47.925Z,24.87
2023-03-18T17:26:17.411Z,24.39
2023-03-18T17:28:48.351Z,24.42
2023-03-18T17:31:17.317Z,24.52
2023-03-18T17:33:45.773Z,24.31
2023-03-18T17:36:13.815Z,24.07
2023-03-18T17:38:41.918Z,24.11
2023-03-18T17:41:19.477Z,23.90
2023-03-18T17:43:47.394Z,23.81
2023-03-18T17:46:15.386Z,23.68
2023-03-18T17:48:43.834Z,23.48
2023-03-18T17:51:16.973Z,23.40
2023-03-18T17:53:47.892Z,23.46
2023-03-18T17:56:19.664Z,23.43
2023-03-18T17:58:49.416Z,23.38
2023-03-18T18:01:19.672Z,22.89
2023-03-18T18:03:48.535Z,22.95
2023-03-18T18:06:19.220Z,22.96
2023-03-18T18:08:48.370Z,22.95
2023-03-18T18:11:21.324Z,22.85
2023-03-18T18:13:50.989Z,22.73
2023-03-18T18:16:19.952Z,22.45
2023-03-18T18:18:49.872Z,22.14
2023-03-18T18:21:21.398Z,22.43
2023-03-18T18:23:49.838Z,21.95
2023-03-18T18:26:21.468Z,22.33
2023-03-18T18:28:51.148Z,23.03
2023-03-18T18:31:20.762Z,22.98
2023-03-18T18:33:50.478Z,22.25
2023-03-18T18:36:18.724Z,22.07
2023-03-18T18:38:47.031Z,22.12
2023-03-18T18:41:15.239Z,22.12
2023-03-18T18:43:44.476Z,21.86
2023-03-18T18:46:14.865Z,21.85
2023-03-18T18:48:45.471Z,22.01
2023-03-18T18:51:18.412Z,21.93
2023-03-18T18:53:47.571Z,22.17
2023-03-18T18:56:20.528Z,22.21
2023-03-18T18:58:51.766Z,22.28
2023-03-18T19:01:20.952Z,22.12
2023-03-18T19:03:49.992Z,22.43
2023-03-18T19:06:27.991Z,22.16
2023-03-18T19:08:58.097Z,22.10
2023-03-18T19:11:27.492Z,21.64
2023-03-18T19:14:18.355Z,21.80
2023-03-18T19:16:49.259Z,21.46
2023-03-18T19:19:29.680Z,21.01
2023-03-18T19:21:59.117Z,21.33
2023-03-18T19:24:31.038Z,21.89
2023-03-18T19:27:02.633Z,22.28
2023-03-18T19:29:33.555Z,22.46
2023-03-18T19:32:02.256Z,22.77
2023-03-18T19:34:32.185Z,22.62
2023-03-18T19:37:02.978Z,22.31
2023-03-18T19:39:31.756Z,22.05
2023-03-18T19:41:59.733Z,21.94
2023-03-18T19:44:28.041Z,22.17
2023-03-18T19:47:01.235Z,22.88
2023-03-18T19:49:32.988Z,22.83
2023-03-18T19:52:02.155Z,22.47
2023-03-18T19:54:32.626Z,22.67
2023-03-18T19:57:03.903Z,21.70
2023-03-18T19:59:38.794Z,20.97
2023-03-18T20:02:20.276Z,21.32
2023-03-18T20:04:49.454Z,20.06
2023-03-18T20:07:19.031Z,21.17
2023-03-18T20:09:47.424Z,21.05
2023-03-18T20:12:24.633Z,19.81
2023-03-18T20:14:52.802Z,20.92
2023-03-18T20:17:41.304Z,20.79
2023-03-18T20:20:15.639Z,20.45
2023-03-18T20:22:48.214Z,20.16
2023-03-18T20:25:21.874Z,20.33
2023-03-18T20:27:53.561Z,21.21
2023-03-18T20:30:28.702Z,21.41
2023-03-18T20:32:59.999Z,20.85
2023-03-18T20:35:31.041Z,20.14
2023-03-18T20:38:01.455Z,19.22
2023-03-18T20:40:31.965Z,19.37
2023-03-18T20:43:00.441Z,19.53
2023-03-18T20:45:29.400Z,18.67
2023-03-18T20:47:59.008Z,20.22
2023-03-18T20:50:29.771Z,20.32
2023-03-18T20:52:58.937Z,20.11
2023-03-18T20:55:30.748Z,20.14
2023-03-18T20:58:00.546Z,18.46
2023-03-18T21:00:31.169Z,18.90
2023-03-18T21:03:03.154Z,18.76
2023-03-18T21:05:31.597Z,18.81
2023-03-18T21:07:59.791Z,18.82
2023-03-18T21:10:28.968Z,19.07
2023-03-18T21:12:58.355Z,18.90
2023-03-18T21:15:28.273Z,18.79
2023-03-18T21:17:56.690Z,19.11
2023-03-18T21:20:31.680Z,19.33
2023-03-18T21:23:00.508Z,18.97
2023-03-18T21:25:29.863Z,19.91
2023-03-18T21:27:59.408Z,19.36
2023-03-18T21:30:27.957Z,20.33
2023-03-18T21:32:56.512Z,19.94
2023-03-18T21:35:27.245Z,19.62
2023-03-18T21:37:57.258Z,19.30
2023-03-18T21:40:27.082Z,19.84
2023-03-18T21:42:55.872Z,19.89
2023-03-18T21:45:26.350Z,20.26
2023-03-18T21:48:01.268Z,20.44
2023-03-18T21:50:45.278Z,20.24
2023-03-18T21:53:35.099Z,21.03
2023-03-18T21:56:18.438Z,20.89
2023-03-18T21:58:48.507Z,21.03
2023-03-18T22:01:23.931Z,21.21
2023-03-18T22:03:56.123Z,20.65
2023-03-18T22:06:30.639Z,19.84
2023-03-18T22:11:55.102Z,19.85
2023-03-18T22:14:23.709Z,19.78
2023-03-18T22:16:52.863Z,20.40
2023-03-18T22:19:23.774Z,19.96
2023-03-18T22:21:52.839Z,19.37
2023-03-18T22:24:27.691Z,19.78
2023-03-18T22:26:58.711Z,20.82
2023-03-18T22:29:30.445Z,20.02
2023-03-18T22:31:59.470Z,19.63
2023-03-18T22:34:28.659Z,19.69
2023-03-18T22:37:01.155Z,20.40
2023-03-18T22:39:33.021Z,20.55
2023-03-18T22:42:03.215Z,19.80
2023-03-18T22:44:35.487Z,20.00
2023-03-18T22:47:14.210Z,20.14
2023-03-18T22:49:44.487Z,19.59
2023-03-18T22:52:21.436Z,20.25
2023-03-18T22:54:58.724Z,19.58
2023-03-18T22:57:29.187Z,19.10
2023-03-18T23:00:02.690Z,19.45
2023-03-18T23:02:34.349Z,19.93
2023-03-18T23:05:03.946Z,20.56
2023-03-18T23:07:35.944Z,20.35
2023-03-18T23:10:07.047Z,20.33
2023-03-18T23:12:35.621Z,20.30
2023-03-18T23:15:08.769Z,19.69
2023-03-18T23:17:39.712Z,20.07
2023-03-18T23:20:11.317Z,19.91
2023-03-18T23:22:40.973Z,19.44
2023-03-18T23:25:20.129Z,20.01
2023-03-18T23:27:49.710Z,20.54
2023-03-18T23:30:21.782Z,20.28
2023-03-18T23:32:52.656Z,20.00
2023-03-18T23:35:22.077Z,19.73
2023-03-18T23:37:50.727Z,19.17
2023-03-18T23:40:22.209Z,19.80
2023-03-18T23:42:55.578Z,20.79
2023-03-18T23:45:25.090Z,20.39
2023-03-18T23:47:57.155Z,20.10
2023-03-18T23:50:27.583Z,20.05
2023-03-18T23:53:01.689Z,20.20
2023-03-18T23:55:42.570Z,20.53
2023-03-18T23:58:37.558Z,20.32
